Tiempo atmosférico en la estación meteorológica de Cazorla, Jaén (799 m.)



Fecha
DESCASC
Temp. máxima en grados centígrados (hora)
DESCASC
Temp. mínima en grados centígrados (hora)
DESCASC
Temp. media en grados centígrados
DESCASC
Racha de viento máxima en m/sg (hora)
DESCASC
Velocidad máxima media en intervalos de 10 minutos(hora)
DESCASC
Precipitaciones diarias en mm
DESCASC
Precipitaciones de 00:00 a 06:00 en mm
DESCASC
Precipitaciones de 06:00 a 12:00 en mm
DESCASC
Precipitaciones de 12:00 a 18:00 en mm
DESCASC
Precipitaciones de 18:00 a 24:00 en mm
DESCASC
18-02-2018 14.1 (15:40) 6.7 (08:20) 10.4 -- (--) -- (--) 0 0 0 0 0
17-02-2018 16.3 (15:20) 7.9 (08:00) 12.1 -- (--) -- (--) 0 0 0 0 0
16-02-2018 18.3 (15:30) 8.2 (06:40) 13.2 -- (--) -- (--) 0 0 0 0 0
15-02-2018 16 (15:40) 5.7 (00:00) 10.8 -- (--) -- (--) 0 0 0 0 0
14-02-2018 11.7 (15:10) 3.3 (00:00) 7.5 -- (--) -- (--) 0 0 0 0 0
13-02-2018 10.3 (14:20) 1.7 (00:00) 6 -- (--) -- (--) 0 0 0 0 0
12-02-2018 8.3 (02:40) 4.7 (00:00) 6.5 -- (--) -- (--) 12.2 0 7.6 4.4 0.2
11-02-2018 13.3 (15:30) 1.5 (00:00) 7.4 -- (--) -- (--) 0 0 0 0 0
10-02-2018 9.3 (15:50) 1.8 (00:00) 5.6 -- (--) -- (--) 0 0 0 0 0
09-02-2018 8.1 (15:40) -1.5 (-00:0) 3.3 -- (--) -- (--) 0 0 0 0 0
08-02-2018 8.2 (15:50) -0.3 (00:00) 3.9 -- (--) -- (--) 0 0 0 0 0
07-02-2018 6 (16:00) -2.2 (-00:0) 1.9 -- (--) -- (--) 1 0 0 1 0
06-02-2018 2.6 (13:00) -0.1 (00:00) 1.2 -- (--) -- (--) 0 0 0 0 0
05-02-2018 3.8 (14:30) 0 (00:00) 1.9 -- (--) -- (--) 4.6 0.4 2.4 1.8 0
04-02-2018 4.2 (17:20) 0.6 (00:00) 2.4 -- (--) -- (--) 2.8 0 1 0.6 1.2
03-02-2018 8.6 (15:10) 0.2 (00:00) 4.4 -- (--) -- (--) 0 0 0 0 0
02-02-2018 4.4 (16:50) -0.1 (00:00) 2.2 -- (--) -- (--) 1.4 1.4 0 0 0
01-02-2018 9.1 (14:40) 3.7 (00:00) 6.4 -- (--) -- (--) 4.2 0 0 0 4.2
31-01-2018 14.4 (15:40) 3.8 (00:00) 9.1 -- (--) -- (--) 0 0 0 0 0
30-01-2018 13.9 (15:40) 4 (00:00) 8.9 -- (--) -- (--) 0 0 0 0 0
29-01-2018 16.4 (15:30) 6.4 (00:00) 11.4 -- (--) -- (--) 0 0 0 0 0
28-01-2018 10.2 (15:00) 2.1 (00:00) 6.1 -- (--) -- (--) 5 0.8 4.2 0 0
27-01-2018 7.8 (14:30) 2 (00:00) 4.9 -- (--) -- (--) 0 0 0 0 0
26-01-2018 5.6 (17:00) 1.4 (00:00) 3.5 -- (--) -- (--) 5 1 3.6 0.2 0.2
25-01-2018 10.2 (00:00) 5 (00:00) 7.6 -- (--) -- (--) 7 0 0 0 7
24-01-2018 19.3 (15:40) 8.2 (00:00) 13.7 -- (--) -- (--) 0 0 0 0 0
23-01-2018 21 (15:50) 7.4 (00:00) 14.2 -- (--) -- (--) 0 0 0 0 0
22-01-2018 17.9 (15:10) 6.8 (00:00) 12.3 -- (--) -- (--) 0 0 0 0 0

Gráficas

Temp. máximas Temp. mínimas Temp. medias Precipitaciones Rachas de viento máximas Velocidades máximas media en intervalos de 10 minutos

Datos horarios

Fecha y hora oficial Temperatura (ºC) Velocidad del viento (km/h) Dirección del viento Racha (km/h) Dirección de racha Precipitación (mm) Presión (hPa) Tendencia (hPa) Humedad (%)